createdAt,value
2022-09-10T00:02:20.463Z,74.37
2022-09-10T00:04:51.215Z,74.34
2022-09-10T00:07:20.486Z,74.46
2022-09-10T00:09:49.733Z,75.34
2022-09-10T00:12:20.662Z,74.39
2022-09-10T00:14:51.385Z,74.58
2022-09-10T00:17:20.665Z,75.46
2022-09-10T00:19:49.885Z,75.30
2022-09-10T00:22:19.302Z,75.89
2022-09-10T00:24:48.574Z,75.31
2022-09-10T00:27:17.717Z,75.45
2022-09-10T00:29:48.402Z,75.63
2022-09-10T00:32:17.694Z,75.04
2022-09-10T00:34:47.157Z,75.34
2022-09-10T00:37:16.584Z,76.36
2022-09-10T00:39:45.813Z,76.70
2022-09-10T00:42:15.781Z,76.87
2022-09-10T00:45:04.996Z,77.55
2022-09-10T00:47:39.418Z,77.20
2022-09-10T00:50:20.234Z,77.57
2022-09-10T00:52:51.271Z,77.13
2022-09-10T00:55:22.141Z,77.17
2022-09-10T00:57:55.952Z,77.25
2022-09-10T01:00:26.854Z,76.53
2022-09-10T01:02:56.329Z,76.85
2022-09-10T01:05:27.126Z,76.63
2022-09-10T01:07:57.070Z,77.68
2022-09-10T01:10:30.756Z,77.28
2022-09-10T01:13:26.679Z,77.78
2022-09-10T01:16:04.265Z,77.14
2022-09-10T01:18:50.252Z,76.56
2022-09-10T01:21:25.925Z,76.89
2022-09-10T01:24:44.499Z,77.07
2022-09-10T01:27:41.503Z,77.70
2022-09-10T01:30:18.135Z,77.13
2022-09-10T01:33:05.691Z,76.68
2022-09-10T01:35:46.020Z,76.46
2022-09-10T01:38:22.109Z,77.21
2022-09-10T01:40:55.156Z,77.66
2022-09-10T01:43:28.055Z,77.72
2022-09-10T01:46:19.541Z,77.35
2022-09-10T01:49:18.920Z,77.27
2022-09-10T01:52:17.934Z,76.94
2022-09-10T01:55:00.333Z,77.65
2022-09-10T01:57:41.747Z,77.63
2022-09-10T02:00:15.868Z,77.30
2022-09-10T02:02:53.316Z,77.45
2022-09-10T02:05:25.088Z,77.90
2022-09-10T02:08:03.813Z,77.84
2022-09-10T02:10:33.630Z,77.62
2022-09-10T02:13:03.092Z,77.28
2022-09-10T02:15:46.344Z,77.68
2022-09-10T02:18:23.764Z,77.94
2022-09-10T02:20:57.549Z,77.14
2022-09-10T02:23:33.127Z,77.89
2022-09-10T02:26:02.683Z,77.67
2022-09-10T02:28:32.672Z,77.01
2022-09-10T02:31:03.635Z,77.96
2022-09-10T02:33:32.901Z,78.06
2022-09-10T02:36:04.968Z,78.09
2022-09-10T02:38:35.795Z,77.83
2022-09-10T02:41:05.164Z,78.19
2022-09-10T02:43:38.373Z,78.07
2022-09-10T02:46:09.428Z,78.35
2022-09-10T02:48:40.379Z,78.17
2022-09-10T02:51:12.250Z,78.37
2022-09-10T02:53:42.014Z,77.89
2022-09-10T02:56:12.506Z,78.30
2022-09-10T02:58:41.828Z,77.66
2022-09-10T03:01:15.939Z,78.25
2022-09-10T03:03:51.995Z,77.94
2022-09-10T03:06:22.418Z,77.70
2022-09-10T03:08:52.374Z,77.68
2022-09-10T03:11:24.106Z,78.29
2022-09-10T03:13:55.143Z,77.89
2022-09-10T03:16:26.940Z,78.20
2022-09-10T03:18:57.816Z,77.83
2022-09-10T03:21:27.033Z,77.74
2022-09-10T03:23:59.617Z,78.07
2022-09-10T03:26:32.006Z,77.96
2022-09-10T03:29:01.566Z,78.66
2022-09-10T03:31:36.128Z,77.87
2022-09-10T03:34:06.283Z,78.51
2022-09-10T03:36:35.511Z,78.08
2022-09-10T03:39:07.219Z,78.87
2022-09-10T03:41:37.557Z,78.89
2022-09-10T03:44:07.290Z,77.87
2022-09-10T03:46:38.373Z,77.75
2022-09-10T03:49:07.731Z,78.23
2022-09-10T03:51:37.577Z,77.55
2022-09-10T03:54:07.470Z,78.38
2022-09-10T03:56:36.923Z,78.47
2022-09-10T03:59:06.137Z,78.27
2022-09-10T04:01:35.363Z,77.20
2022-09-10T04:04:09.418Z,78.19
2022-09-10T04:06:40.682Z,78.44
2022-09-10T04:09:10.185Z,77.74
2022-09-10T04:11:39.773Z,78.30
2022-09-10T04:14:09.271Z,78.57
2022-09-10T04:16:41.844Z,78.49
2022-09-10T04:19:15.911Z,79.03
2022-09-10T04:21:45.463Z,79.51
2022-09-10T04:24:15.046Z,78.35
2022-09-10T04:26:44.650Z,79.56
2022-09-10T04:29:16.286Z,80.21
2022-09-10T04:31:46.877Z,79.17
2022-09-10T04:34:20.355Z,79.36
2022-09-10T04:36:50.048Z,79.65
2022-09-10T04:39:20.201Z,79.25
2022-09-10T04:41:52.237Z,79.85
2022-09-10T04:44:21.435Z,80.13
2022-09-10T04:46:50.689Z,80.30
2022-09-10T04:49:21.260Z,79.61
2022-09-10T04:51:50.569Z,79.36
2022-09-10T04:54:20.883Z,79.62
2022-09-10T04:56:52.340Z,80.64
2022-09-10T04:59:21.697Z,80.14
2022-09-10T05:01:51.585Z,79.93
2022-09-10T05:04:22.593Z,79.72
2022-09-10T05:06:53.443Z,79.64
2022-09-10T05:09:22.884Z,80.22
2022-09-10T05:11:52.333Z,79.35
2022-09-10T05:14:23.333Z,80.67
2022-09-10T05:16:53.120Z,80.50
2022-09-10T05:19:24.553Z,80.49
2022-09-10T05:22:00.154Z,80.41
2022-09-10T05:24:29.398Z,80.37
2022-09-10T05:26:59.638Z,80.77
2022-09-10T05:29:28.977Z,79.99
2022-09-10T05:31:58.265Z,80.62
2022-09-10T05:34:29.720Z,79.47
2022-09-10T05:36:59.664Z,79.44
2022-09-10T05:39:28.969Z,79.51
2022-09-10T05:42:00.587Z,79.96
2022-09-10T05:44:29.833Z,79.55
2022-09-10T05:46:59.122Z,80.79
2022-09-10T05:49:31.521Z,80.25
2022-09-10T05:52:02.732Z,80.32
2022-09-10T05:54:32.072Z,80.84
2022-09-10T05:57:01.659Z,80.42
2022-09-10T05:59:32.079Z,80.12
2022-09-10T06:02:01.720Z,80.71
2022-09-10T06:04:33.685Z,80.75
2022-09-10T06:07:04.959Z,80.26
2022-09-10T06:09:34.304Z,80.89
2022-09-10T06:12:17.438Z,80.38
2022-09-10T06:14:46.826Z,81.66
2022-09-10T06:17:17.839Z,80.85
2022-09-10T06:19:52.113Z,81.23
2022-09-10T06:22:21.767Z,81.03
2022-09-10T06:24:53.946Z,80.84
2022-09-10T06:27:24.398Z,81.93
2022-09-10T06:29:54.660Z,81.46
2022-09-10T06:32:24.058Z,81.64
2022-09-10T06:34:54.704Z,81.92
2022-09-10T06:37:27.113Z,82.01
2022-09-10T06:39:57.821Z,81.42
2022-09-10T06:42:27.990Z,81.65
2022-09-10T06:45:17.716Z,81.21
2022-09-10T06:51:02.195Z,82.27
2022-09-10T06:53:36.898Z,82.46
2022-09-10T06:56:09.476Z,82.08
2022-09-10T06:58:40.533Z,82.51
2022-09-10T07:01:14.933Z,82.95
2022-09-10T07:03:48.474Z,82.03
2022-09-10T07:06:20.228Z,81.98
2022-09-10T07:08:57.598Z,82.76
2022-09-10T07:11:30.638Z,82.13
2022-09-10T07:14:01.600Z,79.99
2022-09-10T07:16:33.933Z,80.60
2022-09-10T07:19:03.350Z,82.77
2022-09-10T07:21:43.122Z,81.89
2022-09-10T07:24:20.289Z,82.29
2022-09-10T07:27:11.191Z,82.30
2022-09-10T07:29:43.713Z,81.50
2022-09-10T07:32:17.220Z,80.98
2022-09-10T07:34:47.353Z,80.74
2022-09-10T07:37:19.201Z,82.17
2022-09-10T07:39:49.865Z,81.56
2022-09-10T07:42:19.634Z,82.32
2022-09-10T07:44:49.661Z,80.82
2022-09-10T07:47:21.098Z,80.88
2022-09-10T07:49:52.611Z,79.25
2022-09-10T07:52:23.167Z,81.31
2022-09-10T07:54:56.334Z,81.64
2022-09-10T07:57:25.579Z,79.87
2022-09-10T07:59:56.239Z,80.72
2022-09-10T08:02:27.282Z,80.82
2022-09-10T08:05:04.388Z,77.51
2022-09-10T08:07:37.018Z,74.21
2022-09-10T08:10:10.595Z,72.39
2022-09-10T08:12:43.927Z,72.64
2022-09-10T08:15:15.152Z,71.86
2022-09-10T08:17:46.125Z,71.83
2022-09-10T08:20:15.415Z,68.98
2022-09-10T08:22:50.638Z,66.52
2022-09-10T08:25:21.637Z,65.14
2022-09-10T08:27:51.293Z,62.75
2022-09-10T08:30:20.444Z,65.14
2022-09-10T08:32:50.309Z,63.54
2022-09-10T08:35:22.501Z,63.53
2022-09-10T08:37:53.547Z,61.96
2022-09-10T08:40:23.760Z,60.52
2022-09-10T08:42:54.037Z,57.76
2022-09-10T08:45:29.544Z,58.67
2022-09-10T08:48:07.247Z,58.10
2022-09-10T08:50:46.142Z,54.62
2022-09-10T08:53:28.323Z,55.12
2022-09-10T08:56:05.350Z,54.62
2022-09-10T08:58:43.553Z,53.71
2022-09-10T09:01:25.317Z,52.66
2022-09-10T09:03:58.464Z,52.01
2022-09-10T09:06:36.554Z,51.16
2022-09-10T09:09:11.237Z,52.67
2022-09-10T09:11:56.328Z,50.94
2022-09-10T09:14:39.649Z,49.04
2022-09-10T09:17:38.229Z,48.20
2022-09-10T09:20:18.590Z,47.78
2022-09-10T09:23:05.966Z,47.87
2022-09-10T09:25:51.204Z,47.26
2022-09-10T09:28:32.724Z,48.12
2022-09-10T09:31:09.486Z,48.97
2022-09-10T09:33:42.042Z,49.57
2022-09-10T09:36:18.182Z,49.69
2022-09-10T09:38:50.983Z,50.76
2022-09-10T09:41:32.180Z,50.39
2022-09-10T09:44:08.028Z,49.55
2022-09-10T09:46:37.307Z,50.78
2022-09-10T09:49:15.907Z,50.38
2022-09-10T09:51:50.093Z,51.00
2022-09-10T09:57:20.709Z,52.13
2022-09-10T09:59:51.978Z,52.00
2022-09-10T10:02:25.215Z,52.48
2022-09-10T10:05:07.202Z,53.47
2022-09-10T10:07:37.526Z,53.72
2022-09-10T10:10:09.234Z,53.52
2022-09-10T10:12:49.653Z,53.34
2022-09-10T10:15:38.145Z,53.45
2022-09-10T10:18:32.822Z,53.24
2022-09-10T10:21:20.100Z,53.30
2022-09-10T10:23:49.812Z,53.92
2022-09-10T10:26:30.528Z,53.76
2022-09-10T10:29:06.419Z,54.02
2022-09-10T10:31:42.320Z,53.91
2022-09-10T10:34:42.263Z,53.66
2022-09-10T10:37:18.239Z,53.03
2022-09-10T10:40:14.526Z,53.64
2022-09-10T10:42:54.264Z,54.00
2022-09-10T10:45:52.549Z,54.08
2022-09-10T10:48:36.522Z,54.38
2022-09-10T10:51:17.351Z,54.30
2022-09-10T10:54:28.790Z,53.93
2022-09-10T10:57:13.126Z,54.51
2022-09-10T10:59:55.857Z,55.09
2022-09-10T11:02:36.185Z,54.83
2022-09-10T11:05:20.346Z,54.79
2022-09-10T11:07:50.200Z,55.01
2022-09-10T11:10:25.967Z,55.41
2022-09-10T11:13:06.339Z,54.69
2022-09-10T11:15:44.644Z,53.59
2022-09-10T11:18:21.263Z,53.94
2022-09-10T11:21:06.304Z,52.56
2022-09-10T11:23:45.309Z,52.62
2022-09-10T11:26:22.880Z,52.43
2022-09-10T11:29:01.631Z,51.96
2022-09-10T11:31:36.730Z,53.20
2022-09-10T11:34:16.101Z,53.32
2022-09-10T11:36:50.682Z,50.23
2022-09-10T11:39:26.855Z,50.32
2022-09-10T11:41:59.462Z,49.37
2022-09-10T11:44:49.250Z,47.40
2022-09-10T11:47:25.767Z,48.71
2022-09-10T11:50:04.703Z,48.76
2022-09-10T11:52:35.368Z,49.54
2022-09-10T11:55:08.590Z,50.29
2022-09-10T11:57:49.437Z,50.13
2022-09-10T12:00:20.536Z,50.96
2022-09-10T12:03:36.083Z,51.77
2022-09-10T12:06:17.992Z,51.43
2022-09-10T12:09:01.730Z,52.14
2022-09-10T12:11:39.463Z,51.63
2022-09-10T12:14:14.847Z,51.30
2022-09-10T12:16:52.114Z,50.78
2022-09-10T12:19:29.377Z,50.59
2022-09-10T12:22:03.402Z,49.27
2022-09-10T12:24:34.859Z,46.82
2022-09-10T12:27:06.784Z,45.08
2022-09-10T12:29:40.314Z,41.52
2022-09-10T12:32:29.799Z,40.55
2022-09-10T12:35:46.847Z,41.23
2022-09-10T12:39:13.211Z,40.40
2022-09-10T12:42:04.143Z,39.26
2022-09-10T12:44:57.659Z,37.30
2022-09-10T12:47:53.988Z,36.72
2022-09-10T12:50:46.539Z,35.71
2022-09-10T12:53:47.419Z,35.09
2022-09-10T12:57:00.679Z,35.29
2022-09-10T13:00:14.282Z,35.74
2022-09-10T13:02:53.918Z,34.19
2022-09-10T13:05:32.448Z,34.24
2022-09-10T13:08:19.480Z,34.00
2022-09-10T13:11:12.129Z,34.04
2022-09-10T13:13:44.282Z,33.92
2022-09-10T13:16:20.413Z,33.97
2022-09-10T13:18:55.059Z,34.47
2022-09-10T13:21:55.164Z,34.68
2022-09-10T13:25:03.125Z,34.66
2022-09-10T13:27:41.711Z,34.27
2022-09-10T13:30:19.973Z,35.02
2022-09-10T13:32:55.288Z,34.28
2022-09-10T13:36:11.985Z,34.00
2022-09-10T13:39:32.210Z,33.86
2022-09-10T13:42:35.437Z,33.90
2022-09-10T13:45:24.456Z,34.69
2022-09-10T13:48:02.199Z,35.10
2022-09-10T13:50:40.386Z,35.72
2022-09-10T13:53:14.677Z,35.77
2022-09-10T13:55:56.898Z,35.84
2022-09-10T13:58:29.949Z,36.03
2022-09-10T14:01:02.914Z,36.23
2022-09-10T14:03:36.707Z,37.43
2022-09-10T14:06:09.200Z,38.45
2022-09-10T14:08:44.117Z,38.68
2022-09-10T14:11:20.229Z,38.93
2022-09-10T14:13:55.579Z,39.10
2022-09-10T14:16:32.005Z,39.77
2022-09-10T14:19:06.359Z,40.09
2022-09-10T14:21:36.241Z,40.31
2022-09-10T14:24:05.927Z,40.31
2022-09-10T14:26:35.771Z,40.88
2022-09-10T14:29:25.051Z,40.86
2022-09-10T14:31:54.471Z,40.99
2022-09-10T14:34:33.833Z,41.31
2022-09-10T14:37:24.247Z,41.54
2022-09-10T14:39:56.653Z,41.36
2022-09-10T14:42:34.156Z,40.31
2022-09-10T14:45:04.232Z,40.85
2022-09-10T14:47:37.198Z,41.33
2022-09-10T14:50:28.451Z,41.04
2022-09-10T14:52:57.972Z,41.84
2022-09-10T14:55:32.045Z,41.97
2022-09-10T14:58:01.494Z,42.11
2022-09-10T15:00:31.346Z,42.50
2022-09-10T15:03:00.767Z,43.49
2022-09-10T15:05:30.912Z,43.95
2022-09-10T15:08:00.142Z,44.00
2022-09-10T15:10:30.863Z,44.00
2022-09-10T15:13:01.099Z,43.89
2022-09-10T15:15:31.135Z,44.17
2022-09-10T15:18:00.284Z,44.84
2022-09-10T15:20:29.382Z,44.17
2022-09-10T15:22:58.506Z,44.30
2022-09-10T15:25:39.032Z,44.66
2022-09-10T15:28:08.680Z,45.09
2022-09-10T15:30:37.869Z,45.36
2022-09-10T15:33:08.106Z,45.23
2022-09-10T15:35:39.553Z,45.69
2022-09-10T15:38:08.956Z,45.72
2022-09-10T15:40:39.486Z,46.91
2022-09-10T15:43:08.820Z,47.19
2022-09-10T15:45:39.923Z,47.53
2022-09-10T15:48:09.114Z,47.92
2022-09-10T15:50:39.490Z,48.00
2022-09-10T15:53:11.907Z,48.57
2022-09-10T15:55:42.933Z,49.47
2022-09-10T15:58:12.666Z,49.55
2022-09-10T16:00:42.044Z,50.23
2022-09-10T16:03:11.168Z,51.73
2022-09-10T16:05:40.369Z,52.09
2022-09-10T16:08:09.630Z,52.79
2022-09-10T16:10:42.202Z,53.17
2022-09-10T16:13:11.408Z,53.93
2022-09-10T16:15:40.747Z,53.65
2022-09-10T16:18:09.931Z,54.26
2022-09-10T16:20:40.001Z,54.29
2022-09-10T16:23:09.209Z,54.80
2022-09-10T16:25:39.443Z,54.95
2022-09-10T16:28:10.043Z,55.74
2022-09-10T16:30:39.231Z,56.57
2022-09-10T16:33:09.713Z,56.46
2022-09-10T16:35:39.088Z,56.06
2022-09-10T16:38:09.203Z,56.85
2022-09-10T16:40:38.406Z,56.76
2022-09-10T16:43:07.738Z,57.35
2022-09-10T16:45:38.290Z,57.00
2022-09-10T16:48:07.656Z,56.84
2022-09-10T16:50:36.707Z,55.98
2022-09-10T16:53:10.151Z,56.43
2022-09-10T16:55:41.113Z,56.20
2022-09-10T16:58:11.041Z,55.79
2022-09-10T17:00:42.816Z,55.75
2022-09-10T17:03:12.022Z,55.08
2022-09-10T17:05:41.523Z,55.00
2022-09-10T17:08:11.064Z,55.06
2022-09-10T17:10:40.635Z,55.46
2022-09-10T17:13:11.301Z,55.58
2022-09-10T17:15:43.323Z,56.29
2022-09-10T17:18:13.131Z,56.52
2022-09-10T17:20:43.414Z,57.08
2022-09-10T17:23:13.907Z,57.40
2022-09-10T17:25:43.535Z,57.78
2022-09-10T17:28:12.971Z,57.87
2022-09-10T17:30:43.767Z,58.42
2022-09-10T17:33:12.987Z,58.73
2022-09-10T17:35:42.164Z,59.43
2022-09-10T17:38:11.323Z,59.40
2022-09-10T17:40:40.506Z,60.04
2022-09-10T17:43:09.958Z,59.84
2022-09-10T17:45:39.298Z,60.54
2022-09-10T17:48:10.019Z,61.19
2022-09-10T17:50:45.755Z,60.88
2022-09-10T17:53:14.992Z,61.50
2022-09-10T17:55:44.418Z,61.28
2022-09-10T17:58:16.765Z,61.25
2022-09-10T18:00:48.554Z,61.25
2022-09-10T18:03:19.261Z,61.64
2022-09-10T18:05:48.428Z,62.33
2022-09-10T18:08:17.813Z,62.27
2022-09-10T18:10:48.013Z,62.37
2022-09-10T18:13:19.550Z,62.40
2022-09-10T18:15:48.934Z,62.77
2022-09-10T18:18:19.667Z,62.80
2022-09-10T18:20:48.845Z,63.57
2022-09-10T18:23:19.497Z,63.32
2022-09-10T18:25:50.084Z,63.96
2022-09-10T18:28:19.350Z,64.03
2022-09-10T18:30:48.794Z,65.11
2022-09-10T18:33:19.781Z,65.26
2022-09-10T18:35:49.403Z,65.21
2022-09-10T18:38:18.657Z,65.53
2022-09-10T18:40:47.865Z,65.84
2022-09-10T18:43:17.092Z,65.91
2022-09-10T18:45:46.453Z,66.48
2022-09-10T18:48:15.587Z,66.64
2022-09-10T18:50:47.423Z,67.34
2022-09-10T18:53:17.461Z,67.58
2022-09-10T18:55:47.082Z,67.97
2022-09-10T18:58:16.368Z,68.00
2022-09-10T19:00:45.492Z,68.21
2022-09-10T19:03:15.158Z,68.91
2022-09-10T19:05:46.008Z,69.51
2022-09-10T19:08:18.111Z,69.02
2022-09-10T19:10:47.370Z,69.89
2022-09-10T19:13:16.735Z,69.63
2022-09-10T19:15:54.691Z,69.83
2022-09-10T19:18:23.892Z,70.63
2022-09-10T19:20:56.054Z,70.77
2022-09-10T19:23:25.808Z,70.96
2022-09-10T19:25:56.920Z,71.40
2022-09-10T19:28:26.492Z,71.64
2022-09-10T19:30:55.973Z,71.61
2022-09-10T19:33:25.311Z,72.18
2022-09-10T19:35:56.756Z,72.06
2022-09-10T19:38:37.587Z,72.87
2022-09-10T19:41:09.982Z,72.51
2022-09-10T19:43:40.202Z,73.44
2022-09-10T19:46:12.085Z,73.30
2022-09-10T19:48:42.329Z,73.39
2022-09-10T19:51:15.961Z,73.78
2022-09-10T19:53:45.403Z,73.50
2022-09-10T19:56:20.653Z,74.45
2022-09-10T19:58:52.575Z,74.14
2022-09-10T20:01:24.776Z,74.30
2022-09-10T20:03:56.208Z,73.91
2022-09-10T20:06:27.558Z,75.10
2022-09-10T20:08:57.122Z,74.63
2022-09-10T20:11:28.801Z,74.83
2022-09-10T20:14:00.996Z,75.73
2022-09-10T20:16:31.511Z,75.59
2022-09-10T20:19:04.077Z,74.97
2022-09-10T20:21:35.545Z,74.94
2022-09-10T20:24:07.174Z,75.28
2022-09-10T20:26:41.234Z,75.22
2022-09-10T20:29:14.706Z,75.75
2022-09-10T20:31:46.393Z,75.24
2022-09-10T20:34:19.559Z,75.54
2022-09-10T20:36:52.496Z,76.27
2022-09-10T20:39:25.453Z,76.06
2022-09-10T20:41:55.167Z,75.90
2022-09-10T20:44:24.676Z,75.04
2022-09-10T20:46:54.127Z,75.80
2022-09-10T20:49:23.356Z,75.52
2022-09-10T20:51:54.025Z,75.93
2022-09-10T20:54:23.632Z,75.75
2022-09-10T20:56:53.021Z,76.56
2022-09-10T20:59:26.839Z,75.90
2022-09-10T21:01:57.038Z,76.64
2022-09-10T21:04:26.552Z,76.60
2022-09-10T21:06:57.201Z,76.70
2022-09-10T21:09:26.636Z,75.95
2022-09-10T21:11:56.583Z,76.20
2022-09-10T21:14:27.303Z,75.90
2022-09-10T21:16:56.607Z,76.41
2022-09-10T21:19:26.662Z,76.49
2022-09-10T21:21:57.384Z,75.31
2022-09-10T21:24:26.882Z,75.34
2022-09-10T21:26:56.461Z,75.12
2022-09-10T21:29:25.641Z,75.41
2022-09-10T21:31:56.920Z,74.66
2022-09-10T21:34:26.144Z,75.03
2022-09-10T21:36:56.917Z,74.74
2022-09-10T21:39:26.473Z,74.92
2022-09-10T21:41:55.701Z,74.92
2022-09-10T21:44:25.557Z,74.87
2022-09-10T21:46:55.076Z,75.24
2022-09-10T21:49:24.262Z,75.41
2022-09-10T21:51:53.505Z,74.87
2022-09-10T21:54:24.418Z,75.99
2022-09-10T21:56:54.030Z,75.82
2022-09-10T21:59:25.810Z,75.38
2022-09-10T22:01:55.118Z,75.47
2022-09-10T22:04:24.415Z,74.94
2022-09-10T22:06:54.513Z,75.08
2022-09-10T22:09:26.391Z,74.82
2022-09-10T22:11:59.292Z,76.17
2022-09-10T22:14:28.629Z,75.86
2022-09-10T22:16:59.115Z,75.71
2022-09-10T22:19:28.492Z,75.92
2022-09-10T22:21:57.919Z,75.99
2022-09-10T22:24:29.727Z,76.23
2022-09-10T22:26:59.346Z,76.41
2022-09-10T22:29:29.351Z,75.60
2022-09-10T22:31:58.543Z,75.61
2022-09-10T22:34:27.917Z,75.63
2022-09-10T22:36:57.060Z,76.27
2022-09-10T22:39:29.832Z,76.18
2022-09-10T22:42:01.926Z,77.01
2022-09-10T22:44:31.617Z,76.42
2022-09-10T22:47:00.926Z,76.82
2022-09-10T22:49:30.099Z,77.27
2022-09-10T22:51:59.503Z,76.96
2022-09-10T22:54:32.519Z,77.09
2022-09-10T22:57:01.784Z,76.32
2022-09-10T22:59:32.704Z,76.95
2022-09-10T23:02:01.961Z,76.13
2022-09-10T23:04:31.331Z,76.84
2022-09-10T23:07:01.036Z,75.92
2022-09-10T23:09:31.615Z,76.26
2022-09-10T23:12:01.386Z,76.42
2022-09-10T23:14:30.789Z,76.23
2022-09-10T23:16:59.942Z,77.50
2022-09-10T23:19:30.796Z,77.19
2022-09-10T23:21:59.981Z,76.51
2022-09-10T23:24:31.094Z,77.46
2022-09-10T23:27:03.874Z,77.89
2022-09-10T23:29:33.212Z,77.48
2022-09-10T23:32:02.756Z,77.53
2022-09-10T23:34:32.133Z,77.40
2022-09-10T23:37:01.412Z,76.52
2022-09-10T23:39:32.323Z,76.78
2022-09-10T23:42:01.483Z,76.31
2022-09-10T23:44:31.132Z,76.32
2022-09-10T23:47:02.918Z,76.94
2022-09-10T23:49:32.323Z,76.34
2022-09-10T23:52:01.497Z,76.04
2022-09-10T23:54:32.146Z,76.35
2022-09-10T23:57:02.930Z,76.15
2022-09-10T23:59:32.078Z,77.01
